Home > Products > Valid Products > TAF

000
FTUS45 KTFX 312300
TAFGTF
TAF
KGTF 312329Z 0100/0124 21011KT P6SM SCT150
     FM011000 21011KT P6SM BKN120
     FM011500 02008KT P6SM VCSH SCT070 OVC100=



000
FTUS45 KTFX 312300
TAFLWT
TAF
KLWT 312329Z 0100/0124 22010KT P6SM SCT180
     FM010900 15005KT P6SM BKN120
     FM011500 04008KT P6SM SCT080 OVC120=



000
FTUS45 KTFX 312300
TAFBZN
TAF
KBZN 312329Z 0100/0124 VRB06KT P6SM SCT150
     FM011000 14007KT P6SM SCT090 BKN120
     FM011600 VRB04KT P6SM VCSH SCT060 OVC090=



000
FTUS45 KTFX 312300
TAFHVR
TAF
KHVR 312329Z 0100/0124 06008KT P6SM FEW150
     FM011100 VRB06KT P6SM BKN120
     FM011700 05008KT P6SM SCT070 OVC100=



000
FTUS45 KTFX 312300
TAFHLN
TAF
KHLN 312329Z 0100/0124 VRB05KT P6SM SCT150
     FM010900 VRB05KT P6SM BKN120
     FM011400 VRB05KT P6SM VCSH SCT060 OVC090=



000
FTUS45 KTFX 312300
TAFCTB
TAF
KCTB 312329Z 0100/0124 19008KT P6SM FEW150
     FM010800 26008KT P6SM BKN120
     FM011300 01011KT P6SM VCSH FEW030 SCT050 OVC070=



000
FTUS45 KTFX 311700
TAFHVR
TAF
KHVR 311722Z 3118/0118 06009KT P6SM BKN180
     FM010100 VRB05KT P6SM BKN150
     FM011500 05006KT P6SM SCT080 OVC150=



000
FTUS45 KTFX 311700
TAFHLN
TAF
KHLN 311722Z 3118/0118 VRB06KT P6SM BKN150=



000
FTUS45 KTFX 311700
TAFGTF
TAF
KGTF 311722Z 3118/0118 21014G22KT P6SM BKN180
     FM010100 20011KT P6SM SCT110 OVC150=



000
FTUS45 KTFX 311700
TAFLWT
TAF
KLWT 311722Z 3118/0118 VRB06KT P6SM BKN180
     FM011500 04008KT P6SM SCT080 OVC150=



000
FTUS45 KTFX 311700
TAFBZN
TAF
KBZN 311722Z 3118/0118 VRB06KT P6SM BKN150
     FM011500 14007KT P6SM SCT070 OVC120=



000
FTUS45 KTFX 311700
TAFCTB
TAF
KCTB 311722Z 3118/0118 19008KT P6SM BKN180
     FM312300 26008KT P6SM BKN150
     FM011300 35010KT P6SM SCT035 OVC060=



000
FTUS45 KTFX 311200 AAA
TAFGTF
TAF AMD
KGTF 311238Z 3113/0112 17011KT P6SM BKN180
     FM311600 21011KT P6SM BKN180=



000
FTUS45 KTFX 311200 AAA
TAFCTB
TAF AMD
KCTB 311236Z 3113/0112 07006KT P6SM BKN180
      TEMPO 3113/3115 4SM BR
     FM311900 21010KT P6SM BKN180
     FM010300 27008KT P6SM BKN120=



000
FTUS45 KTFX 311100
TAFCTB
TAF
KCTB 311128Z 3112/0112 07006KT P6SM BKN180
      TEMPO 3112/3114 1SM BR BKN180
     FM311900 21010KT P6SM BKN180
     FM010300 27008KT P6SM BKN120=



000
FTUS45 KTFX 311100
TAFGTF
TAF
KGTF 311128Z 3112/0112 VRB06KT P6SM BKN180
     FM311600 20012KT P6SM BKN180=



000
FTUS45 KTFX 311100
TAFHLN
TAF
KHLN 311128Z 3112/0112 VRB06KT P6SM BKN150=



000
FTUS45 KTFX 311100
TAFLWT
TAF
KLWT 311128Z 3112/0112 12010KT P6SM BKN180
     FM311900 20008KT P6SM BKN180=



000
FTUS45 KTFX 311100
TAFBZN
TAF
KBZN 311128Z 3112/0112 VRB06KT P6SM BKN150=



000
FTUS45 KTFX 311100
TAFHVR
TAF
KHVR 311128Z 3112/0112 06011KT P6SM SCT180
     FM010100 VRB06KT P6SM BKN180=



000
FTUS45 KTFX 311000 AAA
TAFCTB
TAF AMD
KCTB 311025Z 3110/0106 15011KT P6SM SCT150
      TEMPO 3110/3114 1SM BR SCT150
     FM311700 25011KT P6SM BKN150=



000
FTUS45 KTFX 310500
TAFCTB
TAF
KCTB 310520Z 3106/0106 15011KT P6SM SCT150
     FM311700 25011KT P6SM BKN150=



000
FTUS45 KTFX 310500
TAFGTF
TAF
KGTF 310520Z 3106/0106 20011KT P6SM BKN150=



000
FTUS45 KTFX 310500
TAFHLN
TAF
KHLN 310520Z 3106/0106 VRB05KT P6SM BKN200=



000
FTUS45 KTFX 310500
TAFHVR
TAF
KHVR 310520Z 3106/0106 08016KT P6SM SCT150
     FM311600 10011KT P6SM BKN150=



000
FTUS45 KTFX 310500
TAFLWT
TAF
KLWT 310520Z 3106/0106 10011KT P6SM SCT150
     FM312100 18011KT P6SM BKN150=



000
FTUS45 KTFX 310500
TAFBZN
TAF
KBZN 310520Z 3106/0106 VRB05KT P6SM SCT200=



000
FTUS45 KTFX 302300
TAFGTF
TAF
KGTF 302329Z 3100/3124 10008KT P6SM BKN120
     FM310900 19011KT P6SM SCT200=



000
FTUS45 KTFX 302300
TAFBZN
TAF
KBZN 302329Z 3100/3124 VRB05KT P6SM SCT120 BKN200=



000
FTUS45 KTFX 302300
TAFCTB
TAF
KCTB 302329Z 3100/3124 15014KT P6SM BKN100
     FM311000 15005KT P6SM SCT200
     FM311700 22011KT P6SM BKN200=



000
FTUS45 KTFX 302300
TAFHLN
TAF
KHLN 302329Z 3100/3124 VRB04KT P6SM SCT120 BKN200=



000
FTUS45 KTFX 302300
TAFLWT
TAF
KLWT 302329Z 3100/3124 10012KT P6SM SCT120
     FM312100 14015KT P6SM BKN200=



000
FTUS45 KTFX 302300
TAFHVR
TAF
KHVR 302329Z 3100/3124 08016KT P6SM SCT120
     FM311600 10014KT P6SM BKN250=



000
FTUS45 KTFX 301900 AAB
TAFHVR
TAF AMD
KHVR 301901Z 3019/3118 09016KT P6SM SCT250
     FM310000 09017G25KT P6SM BKN250
     FM311600 10010KT P6SM BKN250=



000
FTUS45 KTFX 301800 AAA
TAFHVR
TAF AMD
KHVR 301800Z 3018/3118 09015G22KT P6SM OVC004
     FM302000 09016KT P6SM SCT250
     FM310000 09017G25KT P6SM BKN250
     FM311600 10010KT P6SM BKN250=



000
FTUS45 KTFX 301700
TAFHVR
TAF
KHVR 301720Z 3018/3118 09015G22KT P6SM SKC
     FM310000 09017G25KT P6SM BKN250
     FM311600 10010KT P6SM BKN250=



000
FTUS45 KTFX 301700
TAFHLN
TAF
KHLN 301720Z 3018/3118 VRB04KT P6SM SCT120 BKN250=



000
FTUS45 KTFX 301700
TAFGTF
TAF
KGTF 301720Z 3018/3118 10010KT P6SM BKN250
     FM310900 19010KT P6SM BKN250=



000
FTUS45 KTFX 301700
TAFBZN
TAF
KBZN 301720Z 3018/3118 VRB05KT P6SM SCT120 BKN250=



000
FTUS45 KTFX 301700
TAFCTB
TAF
KCTB 301720Z 3018/3118 15007KT P6SM BKN250=



000
FTUS45 KTFX 301700
TAFLWT
TAF
KLWT 301720Z 3018/3118 10010KT P6SM BKN250
     FM302100 11015G22KT P6SM BKN250
     FM311200 13010KT P6SM BKN250
     FM311600 19010KT P6SM BKN250=



000
FTUS45 KTFX 301700 AAB
TAFHVR
TAF AMD
KHVR 301700Z 3017/3112 08014KT 1SM BR OVC004
     FM301800 09015G20KT P6SM SCT100 SCT150=



000
FTUS45 KTFX 301700 AAB
TAFHVR
TAF AMD
KHVR 301700Z 3017/3112 08014KT 1SM BR OVC004
     FM301800 09015G20KT P6SM SCT100 SCT150=



000
FTUS45 KTFX 301500 AAA
TAFHVR
TAF AMD
KHVR 301523Z 3015/3112 08010KT 1SM BR OVC004
      TEMPO 3015/3017 1/4SM FZFG VV002
     FM301700 09015G20KT P6SM SCT100 SCT150=



000
FTUS45 KTFX 301100
TAFLWT
TAF
KLWT 301135Z 3012/3112 14005KT P6SM FEW100
     FM310100 14015G20KT P6SM SCT100 SCT150=



000
FTUS45 KTFX 301100
TAFHLN
TAF
KHLN 301135Z 3012/3112 15005KT P6SM SCT070 BKN100=



000
FTUS45 KTFX 301100
TAFCTB
TAF
KCTB 301135Z 3012/3112 VRB06KT P6SM FEW200
     FM301600 14015G20KT P6SM SCT100 BKN150=



000
FTUS45 KTFX 301100
TAFBZN
TAF
KBZN 301135Z 3012/3112 15005KT P6SM SCT070 BKN100=



000
FTUS45 KTFX 301100
TAFGTF
TAF
KGTF 301135Z 3012/3112 22010KT P6SM FEW100
     FM301500 12010KT P6SM SCT100 SCT150=



000
FTUS45 KTFX 301100
TAFHVR
TAF
KHVR 301135Z 3012/3112 22005KT P6SM FEW100
     FM301500 09015G20KT P6SM SCT100 SCT150=



000
FTUS45 KTFX 300500
TAFGTF
TAF
KGTF 300520Z 3006/3106 23010KT P6SM FEW200=



000
FTUS45 KTFX 300500
TAFCTB
TAF
KCTB 300520Z 3006/3106 26014KT P6SM SCT120=



000
FTUS45 KTFX 300500
TAFBZN
TAF
KBZN 300520Z 3006/3106 VRB05KT P6SM SCT090 BKN150=



000
FTUS45 KTFX 300500
TAFLWT
TAF
KLWT 300520Z 3006/3106 VRB05KT P6SM SCT090
     FM301500 14009KT P6SM SCT100 BKN150
     FM310100 13014KT P6SM SCT100 BKN150=



000
FTUS45 KTFX 300500
TAFHVR
TAF
KHVR 300520Z 3006/3106 VRB05KT P6SM FEW090
     FM301500 08011KT P6SM SCT100
     FM310100 10020KT P6SM SCT100=



000
FTUS45 KTFX 300500
TAFHLN
TAF
KHLN 300520Z 3006/3106 VRB05KT P6SM SCT090 BKN150=



000
FTUS45 KTFX 292300
TAFLWT
TAF
KLWT 292332Z 3000/3024 30011KT P6SM SCT090 BKN120
     FM300900 VRB05KT P6SM SCT090=



000
FTUS45 KTFX 292300
TAFGTF
TAF
KGTF 292332Z 3000/3024 25014G22KT P6SM FEW100
     FM300200 23010KT P6SM FEW200=



000
FTUS45 KTFX 292300
TAFHVR
TAF
KHVR 292332Z 3000/3024 30008KT P6SM FEW090
     FM300600 VRB05KT P6SM FEW090=



000
FTUS45 KTFX 292300
TAFCTB
TAF
KCTB 292332Z 3000/3024 26014G21KT P6SM SCT120
     FM300200 27010KT P6SM SCT120=



000
FTUS45 KTFX 292300
TAFHLN
TAF
KHLN 292332Z 3000/3024 30010KT P6SM SCT090 BKN120
     FM300600 VRB05KT P6SM FEW200=



000
FTUS45 KTFX 292300
TAFBZN
TAF
KBZN 292332Z 3000/3024 27010KT P6SM SCT090
     FM300200 15005KT P6SM FEW200=



000
FTUS45 KTFX 291700
TAFCTB
TAF
KCTB 291725Z 2918/3018 27020G30KT P6SM SCT120
     FM300200 27010KT P6SM SCT120=



000
FTUS45 KTFX 291700
TAFHLN
TAF
KHLN 291725Z 2918/3018 27010G20KT P6SM SCT090
     FM300000 26010KT P6SM SCT090
     FM300600 VRB05KT P6SM FEW200=



000
FTUS45 KTFX 291700
TAFGTF
TAF
KGTF 291725Z 2918/3018 24015G25KT P6SM FEW100
     FM300000 23010KT P6SM FEW200=



000
FTUS45 KTFX 291700
TAFHVR
TAF
KHVR 291725Z 2918/3018 25015G25KT P6SM SCT090
     FM300200 27010KT P6SM FEW090
     FM300600 VRB05KT P6SM FEW090=



000
FTUS45 KTFX 291700
TAFLWT
TAF
KLWT 291725Z 2918/3018 27015G25KT P6SM BKN090
     FM300200 26010KT P6SM SCT090
     FM300900 VRB05KT P6SM SCT090=



000
FTUS45 KTFX 291700
TAFBZN
TAF
KBZN 291725Z 2918/3018 27010KT P6SM SCT090
     FM300200 15005KT P6SM FEW200=



000
FTUS45 KTFX 291100
TAFHLN
TAF
KHLN 291135Z 2912/3012 VRB05KT P6SM VCSH SCT060 BKN090
     FM291600 25010KT P6SM SCT090
     FM300000 VRB05KT P6SM FEW200=



000
FTUS45 KTFX 291100
TAFHVR
TAF
KHVR 291135Z 2912/3012 24011KT P6SM VCSH SCT060 BKN090
     FM291600 27015G25KT P6SM SCT090
     FM300200 27010KT P6SM FEW090=



000
FTUS45 KTFX 291100
TAFCTB
TAF
KCTB 291135Z 2912/3012 27015G25KT P6SM SCT120
     FM291600 27025G35KT P6SM SCT120
     FM300200 27015KT P6SM SCT120=



000
FTUS45 KTFX 291100
TAFLWT
TAF
KLWT 291135Z 2912/3012 23010KT P6SM VCSH SCT060 BKN090
      WS005/29045KT
     FM291400 27015G25KT P6SM BKN090
     FM300300 27010KT P6SM SCT090=



000
FTUS45 KTFX 291100
TAFGTF
TAF
KGTF 291135Z 2912/3012 22015KT P6SM BKN080
     FM291500 24015G25KT P6SM SCT100
     FM291800 27015G25KT P6SM FEW100
     FM300000 24015KT P6SM FEW200=



000
FTUS45 KTFX 291100
TAFBZN
TAF
KBZN 291135Z 2912/3012 VRB05KT P6SM VCSH SCT060 BKN090
     FM291600 28015G20KT P6SM SCT090
     FM300000 28010KT P6SM SCT090
     FM300600 15005KT P6SM FEW200=



000
FTUS45 KTFX 290500
TAFCTB
TAF
KCTB 290520Z 2906/3006 24016KT P6SM SCT120
     FM290800 25018G28KT P6SM BKN100
     FM291800 28022G34KT P6SM SCT100
     FM300000 26011KT P6SM SKC=



000
FTUS45 KTFX 290500
TAFHLN
TAF
KHLN 290520Z 2906/3006 25008KT P6SM VCSH SCT035 OVC060
      TEMPO 2910/2914 5SM -SHRASN BR BKN025
     FM291800 28015G25KT P6SM SCT040 BKN070
     FM300000 27007KT P6SM SCT080=



000
FTUS45 KTFX 290500
TAFGTF
TAF
KGTF 290520Z 2906/3006 22016KT P6SM SCT120
     FM290900 22017G27KT P6SM VCSH SCT050 BKN080
     FM291800 26020G30KT P6SM BKN070
     FM300000 24011KT P6SM SCT080=



000
FTUS45 KTFX 290500
TAFLWT
TAF
KLWT 290520Z 2906/3006 23011KT P6SM SCT080 BKN150
     FM290900 24015KT P6SM VCSH SCT035 BKN060
     FM291700 29018G28KT P6SM BKN070
     FM300000 29011KT P6SM SCT070=



000
FTUS45 KTFX 290500
TAFHVR
TAF
KHVR 290520Z 2906/3006 23011KT P6SM SCT150
     FM290900 24015KT P6SM VCSH SCT040 BKN070
     FM291500 27018G28KT P6SM SCT080 BKN130
     FM300000 29011KT P6SM SKC=



000
FTUS45 KTFX 290500
TAFBZN
TAF
KBZN 290520Z 2906/3006 15005KT P6SM SCT090
     FM290800 VRB06KT P6SM VCSH SCT035 OVC060
      TEMPO 2912/2916 4SM -SHSNRA BR BKN020
     FM291900 28010G20KT P6SM SCT040 BKN070
     FM300000 27007KT P6SM SCT080=



000
FTUS45 KTFX 290400 AAA
TAFCTB
TAF AMD
KCTB 290416Z 2904/2924 24016KT P6SM SCT120
     FM290600 25020G30KT P6SM SCT120
     FM292000 28018G28KT P6SM SCT080 BKN130=



000
FTUS45 KTFX 290400 AAA
TAFCTB
TAF AMD
KCTB 290416Z 2904/2924 24016KT P6SM SCT120
     FM290600 25020G30KT P6SM SCT120
     FM292000 28018G28KT P6SM SCT080 BKN130=



    US Dept of Commerce
    National Oceanic and Atmospheric Administration
    National Weather Service
    1325 East West Highway
    Silver Spring, MD 20910
    Page Author: NWS Internet Services Team
Disclaimer
Information Quality
Credits
Glossary
Privacy Policy
Freedom of Information Act (FOIA)
About Us
Career Opportunities